Time;durP1;ratioP1;P1;durP2;ratioP2;P2;SDS_P1;SDS_P2;PMS_P1;PMS_P2;Temp;Humidity;BMP_temperature;BMP_pressure;BME280_temperature;BME280_humidity;BME280_pressure;Samples;Min_cycle;Max_cycle;Signal;HPM_P1;HPM_P2
2023/10/15 00:01:46;;;;;;;5.72;1.15;;;;;;;;;;5088933;28;20028;-71
2023/10/15 00:04:15;;;;;;;11.65;1.27;;;;;;;;;;5098674;28;20077;-72
2023/10/15 00:06:41;;;;;;;4.57;1.05;;;;;;;;;;5096674;28;20032;-72
2023/10/15 00:09:07;;;;;;;6.13;0.95;;;;;;;;;;5092105;28;20050;-71
2023/10/15 00:11:33;;;;;;;7.60;1.58;;;;;;;;;;5092032;28;20028;-71
2023/10/15 00:13:59;;;;;;;9.18;1.50;;;;;;;;;;5092025;28;20031;-71
2023/10/15 00:16:26;;;;;;;6.03;1.08;;;;;;;;;;5092121;28;20028;-71
2023/10/15 00:18:52;;;;;;;11.05;1.40;;;;;;;;;;5091823;28;20035;-71
2023/10/15 00:21:18;;;;;;;5.18;1.30;;;;;;;;;;5092100;28;20043;-72
2023/10/15 00:23:46;;;;;;;9.77;1.17;;;;;;;;;;5092033;28;20031;-70
2023/10/15 00:26:12;;;;;;;10.50;2.13;;;;;;;;;;5092507;28;20020;-71
2023/10/15 00:28:39;;;;;;;11.45;1.65;;;;;;;;;;5091836;28;20020;-71
2023/10/15 00:31:09;;;;;;;12.93;1.70;;;;;;;;;;5092387;28;20050;-70
2023/10/15 00:33:35;;;;;;;10.75;1.73;;;;;;;;;;5091702;28;20032;-70
2023/10/15 00:36:04;;;;;;;7.88;2.00;;;;;;;;;;5091809;28;20095;-70
2023/10/15 00:38:30;;;;;;;6.13;1.50;;;;;;;;;;5091650;28;20027;-71
2023/10/15 00:41:00;;;;;;;10.30;1.48;;;;;;;;;;5091727;28;20027;-71
2023/10/15 00:43:27;;;;;;;7.72;1.48;;;;;;;;;;5091702;28;20040;-71
2023/10/15 00:45:53;;;;;;;10.32;1.50;;;;;;;;;;5091621;28;20036;-71
2023/10/15 00:48:27;;;;;;;10.75;1.40;;;;;;;;;;5091852;28;20024;-70
2023/10/15 00:50:54;;;;;;;7.20;1.40;;;;;;;;;;5091745;28;20470;-70
2023/10/15 00:53:21;;;;;;;12.07;1.85;;;;;;;;;;5092096;28;20024;-71
2023/10/15 00:55:51;;;;;;;8.05;1.70;;;;;;;;;;5091941;28;20430;-71
2023/10/15 00:58:22;;;;;;;7.63;1.70;;;;;;;;;;5091803;28;20052;-71
2023/10/15 01:03:19;;;;;;;9.68;1.45;;;;;;;;;;5095917;28;20032;-70
2023/10/15 01:05:53;;;;;;;10.88;2.17;;;;;;;;;;5095893;28;20025;-70
2023/10/15 01:08:24;;;;;;;11.07;2.25;;;;;;;;;;5095714;28;20028;-72
2023/10/15 01:10:53;;;;;;;9.85;1.83;;;;;;;;;;5095531;28;20131;-70
2023/10/15 01:13:24;;;;;;;6.72;1.23;;;;;;;;;;5095333;28;20391;-71
2023/10/15 01:15:54;;;;;;;15.60;2.00;;;;;;;;;;5095304;28;20031;-70
2023/10/15 01:18:20;;;;;;;9.15;1.65;;;;;;;;;;5095219;28;20020;-71
2023/10/15 01:20:46;;;;;;;9.30;1.33;;;;;;;;;;5095128;28;20054;-71
2023/10/15 01:23:32;;;;;;;11.10;2.47;;;;;;;;;;5095096;28;20050;-71
2023/10/15 01:26:01;;;;;;;8.23;2.15;;;;;;;;;;5095342;28;20020;-70
2023/10/15 01:28:36;;;;;;;8.70;1.67;;;;;;;;;;5094205;28;20024;-70
2023/10/15 01:31:06;;;;;;;7.25;1.25;;;;;;;;;;5095207;28;20082;-70
2023/10/15 01:33:45;;;;;;;8.98;1.30;;;;;;;;;;5094781;28;20032;-72
2023/10/15 01:36:15;;;;;;;11.30;1.70;;;;;;;;;;5094901;28;20016;-70
2023/10/15 01:38:44;;;;;;;9.23;1.20;;;;;;;;;;5094757;28;20252;-69
2023/10/15 01:41:13;;;;;;;7.60;1.52;;;;;;;;;;5094689;28;20153;-70
2023/10/15 01:43:39;;;;;;;9.50;1.60;;;;;;;;;;5094820;28;20020;-70
2023/10/15 01:46:10;;;;;;;5.65;1.15;;;;;;;;;;5094698;28;20052;-70
2023/10/15 01:48:41;;;;;;;5.70;1.13;;;;;;;;;;5094761;28;20471;-70
2023/10/15 01:51:07;;;;;;;8.05;1.30;;;;;;;;;;5094760;28;20028;-71
2023/10/15 01:53:39;;;;;;;9.20;1.38;;;;;;;;;;5094582;28;20395;-71
2023/10/15 01:56:06;;;;;;;5.60;1.55;;;;;;;;;;5094714;28;20031;-70
2023/10/15 01:58:32;;;;;;;7.43;1.77;;;;;;;;;;5094743;28;20044;-71
2023/10/15 02:01:09;;;;;;;13.23;1.80;;;;;;;;;;5094471;28;20076;-70
2023/10/15 02:03:39;;;;;;;10.00;1.55;;;;;;;;;;5095174;28;20032;-70
2023/10/15 02:06:06;;;;;;;6.97;1.70;;;;;;;;;;5094881;28;20032;-71
2023/10/15 02:08:33;;;;;;;7.78;1.48;;;;;;;;;;5094227;28;20024;-68
2023/10/15 02:11:04;;;;;;;7.75;1.40;;;;;;;;;;5094262;28;20387;-71
2023/10/15 02:13:33;;;;;;;6.93;1.25;;;;;;;;;;5093493;28;20016;-71
2023/10/15 02:16:08;;;;;;;10.32;1.38;;;;;;;;;;5094250;28;20056;-71
2023/10/15 02:18:35;;;;;;;8.52;1.40;;;;;;;;;;5094040;28;20103;-70
2023/10/15 02:21:01;;;;;;;5.82;1.60;;;;;;;;;;5094183;28;20028;-70
2023/10/15 02:23:28;;;;;;;9.13;1.33;;;;;;;;;;5094156;28;20028;-70
2023/10/15 02:26:00;;;;;;;10.00;1.45;;;;;;;;;;5094220;28;20081;-70
2023/10/15 02:28:26;;;;;;;9.00;1.40;;;;;;;;;;5093922;28;20437;-70
2023/10/15 02:31:05;;;;;;;11.30;1.65;;;;;;;;;;5093923;28;20020;-70
2023/10/15 02:33:31;;;;;;;11.60;1.95;;;;;;;;;;5093810;28;20475;-70
2023/10/15 02:35:59;;;;;;;9.02;1.65;;;;;;;;;;5094290;28;20024;-71
2023/10/15 02:38:36;;;;;;;14.95;1.98;;;;;;;;;;5094354;28;20024;-71
2023/10/15 02:43:28;;;;;;;10.95;1.58;;;;;;;;;;5096217;28;20124;-71
2023/10/15 02:45:55;;;;;;;11.63;1.85;;;;;;;;;;5093915;28;20028;-75
2023/10/15 02:48:22;;;;;;;8.23;1.50;;;;;;;;;;5093396;28;20491;-71
2023/10/15 02:51:35;;;;;;;10.48;1.60;;;;;;;;;;5092413;28;20031;-71
2023/10/15 02:53:39;;;;;;;9.65;1.48;;;;;;;;;;5084419;28;20032;-70
2023/10/15 02:56:12;;;;;;;9.20;1.50;;;;;;;;;;5090695;28;20021;-71
2023/10/15 02:58:38;;;;;;;7.13;1.80;;;;;;;;;;5092453;28;20016;-70
2023/10/15 03:01:20;;;;;;;9.13;1.45;;;;;;;;;;5092313;28;20102;-70
2023/10/15 03:03:49;;;;;;;6.55;1.33;;;;;;;;;;5092277;28;20605;-70
2023/10/15 03:06:18;;;;;;;6.65;1.65;;;;;;;;;;5091149;28;20040;-70
2023/10/15 03:08:47;;;;;;;9.55;1.42;;;;;;;;;;5091969;28;20036;-71
2023/10/15 03:11:14;;;;;;;6.82;1.73;;;;;;;;;;5073040;28;20028;-69
2023/10/15 03:13:55;;;;;;;5.63;1.20;;;;;;;;;;5092288;28;20077;-70
2023/10/15 03:16:22;;;;;;;15.30;1.50;;;;;;;;;;5093147;28;20175;-69
2023/10/15 03:18:49;;;;;;;7.85;1.20;;;;;;;;;;5092552;28;20076;-70
2023/10/15 03:21:34;;;;;;;7.70;1.15;;;;;;;;;;5092812;28;20028;-70
2023/10/15 03:24:04;;;;;;;6.78;1.25;;;;;;;;;;5091366;28;20024;-70
2023/10/15 03:26:33;;;;;;;7.40;1.27;;;;;;;;;;5092750;28;20101;-69
2023/10/15 03:29:00;;;;;;;6.03;1.25;;;;;;;;;;5092613;28;20027;-71
2023/10/15 03:31:31;;;;;;;5.03;1.40;;;;;;;;;;5092569;28;20024;-71
2023/10/15 03:36:42;;;;;;;7.18;1.35;;;;;;;;;;5093011;28;20045;-71
2023/10/15 03:39:15;;;;;;;6.72;1.10;;;;;;;;;;5092824;28;20023;-71
2023/10/15 03:41:41;;;;;;;5.15;1.50;;;;;;;;;;5092883;28;20096;-70
2023/10/15 03:44:10;;;;;;;8.30;1.95;;;;;;;;;;5092910;28;20077;-70
2023/10/15 03:46:36;;;;;;;10.43;1.70;;;;;;;;;;5092403;28;20042;-71
2023/10/15 03:49:07;;;;;;;9.60;2.20;;;;;;;;;;5092217;28;20024;-71
2023/10/15 03:51:34;;;;;;;10.68;2.20;;;;;;;;;;5092339;28;20024;-69
2023/10/15 03:54:06;;;;;;;10.93;1.65;;;;;;;;;;5092216;28;20059;-71
2023/10/15 03:56:34;;;;;;;10.85;1.80;;;;;;;;;;5092136;28;20020;-70
2023/10/15 03:59:00;;;;;;;11.40;2.00;;;;;;;;;;5092113;28;20044;-70
2023/10/15 04:01:27;;;;;;;9.80;1.83;;;;;;;;;;5092043;28;20081;-69
2023/10/15 04:03:53;;;;;;;6.68;1.60;;;;;;;;;;5092424;28;20052;-70
2023/10/15 04:06:21;;;;;;;9.50;2.17;;;;;;;;;;5092337;28;20532;-71
2023/10/15 04:09:09;;;;;;;7.07;1.38;;;;;;;;;;5087160;28;20391;-71
2023/10/15 04:11:42;;;;;;;17.23;2.10;;;;;;;;;;5085149;28;20031;-73
2023/10/15 04:14:13;;;;;;;11.38;1.65;;;;;;;;;;5098420;28;20038;-72
2023/10/15 04:16:43;;;;;;;10.02;1.83;;;;;;;;;;5085500;28;20040;-72
2023/10/15 04:19:09;;;;;;;9.48;2.13;;;;;;;;;;5093087;28;20016;-73
2023/10/15 04:21:40;;;;;;;9.88;1.55;;;;;;;;;;5091478;28;20020;-72
2023/10/15 04:24:06;;;;;;;5.60;1.60;;;;;;;;;;5092438;28;20034;-73
2023/10/15 04:26:35;;;;;;;7.70;1.63;;;;;;;;;;5088758;28;20095;-70
2023/10/15 04:29:15;;;;;;;7.20;1.27;;;;;;;;;;5091467;28;20024;-73
2023/10/15 04:31:41;;;;;;;11.98;1.88;;;;;;;;;;5100080;28;20058;-72
2023/10/15 04:34:14;;;;;;;9.65;1.63;;;;;;;;;;5109701;28;20030;-71
2023/10/15 04:36:40;;;;;;;8.35;1.85;;;;;;;;;;5111876;28;20024;-72
2023/10/15 04:39:12;;;;;;;9.85;1.75;;;;;;;;;;5112430;28;20315;-70
2023/10/15 04:41:38;;;;;;;7.97;1.60;;;;;;;;;;5112055;28;20050;-69
2023/10/15 04:44:04;;;;;;;8.77;1.50;;;;;;;;;;5112019;28;20023;-70
2023/10/15 04:46:40;;;;;;;4.25;1.35;;;;;;;;;;5111909;28;20053;-70
2023/10/15 04:49:07;;;;;;;7.90;1.38;;;;;;;;;;5111898;28;20059;-69
2023/10/15 04:51:42;;;;;;;5.93;1.50;;;;;;;;;;5111854;28;20427;-69
2023/10/15 04:54:08;;;;;;;4.75;1.25;;;;;;;;;;5112125;28;20486;-69
2023/10/15 04:56:34;;;;;;;6.78;1.42;;;;;;;;;;5111858;28;20183;-70
2023/10/15 04:59:00;;;;;;;11.60;1.70;;;;;;;;;;5111794;28;20059;-69
2023/10/15 05:01:26;;;;;;;5.82;1.50;;;;;;;;;;5111774;28;20024;-69
2023/10/15 05:03:52;;;;;;;6.05;1.15;;;;;;;;;;5112416;28;20100;-71
2023/10/15 05:06:18;;;;;;;9.25;1.38;;;;;;;;;;5111912;28;20471;-70
2023/10/15 05:08:47;;;;;;;7.15;1.00;;;;;;;;;;5111658;28;20085;-71
2023/10/15 05:11:13;;;;;;;9.20;1.27;;;;;;;;;;5111699;28;20043;-69
2023/10/15 05:13:42;;;;;;;7.25;1.33;;;;;;;;;;5100937;28;20028;-70
2023/10/15 05:16:08;;;;;;;7.25;1.23;;;;;;;;;;5097281;28;20103;-69
2023/10/15 05:18:34;;;;;;;8.45;1.20;;;;;;;;;;5097394;28;20095;-70
2023/10/15 05:21:03;;;;;;;5.65;1.00;;;;;;;;;;5097184;28;20079;-71
2023/10/15 05:23:29;;;;;;;7.10;1.25;;;;;;;;;;5087990;28;20095;-71
2023/10/15 05:25:56;;;;;;;10.38;1.40;;;;;;;;;;5087414;28;20127;-70
2023/10/15 05:28:22;;;;;;;8.30;1.48;;;;;;;;;;5089972;28;20487;-70
2023/10/15 05:30:49;;;;;;;5.50;1.00;;;;;;;;;;5096823;28;20031;-69
2023/10/15 05:33:16;;;;;;;12.82;1.63;;;;;;;;;;5088002;28;20130;-70
2023/10/15 05:35:48;;;;;;;9.35;1.73;;;;;;;;;;5096783;28;20055;-71
2023/10/15 05:38:14;;;;;;;8.20;1.25;;;;;;;;;;5089936;28;20021;-70
2023/10/15 05:40:41;;;;;;;4.18;1.08;;;;;;;;;;5090462;28;20425;-71
2023/10/15 05:43:07;;;;;;;9.65;1.30;;;;;;;;;;5086052;28;20134;-69
2023/10/15 05:45:33;;;;;;;11.00;1.30;;;;;;;;;;5095399;28;20482;-69
2023/10/15 05:48:00;;;;;;;9.77;1.95;;;;;;;;;;5098889;28;20024;-70
2023/10/15 05:50:26;;;;;;;8.57;1.80;;;;;;;;;;5092514;28;20391;-71
2023/10/15 05:52:52;;;;;;;14.15;1.67;;;;;;;;;;5091418;28;20024;-70
2023/10/15 05:55:19;;;;;;;11.52;2.03;;;;;;;;;;5094218;28;20031;-70
2023/10/15 05:57:46;;;;;;;6.35;1.10;;;;;;;;;;5102350;28;20017;-70
2023/10/15 06:00:18;;;;;;;5.82;1.13;;;;;;;;;;5085122;28;20028;-72
2023/10/15 06:02:47;;;;;;;5.70;1.20;;;;;;;;;;5095906;28;20032;-73
2023/10/15 06:05:16;;;;;;;19.30;1.75;;;;;;;;;;5097525;28;20151;-70
2023/10/15 06:07:46;;;;;;;9.30;1.80;;;;;;;;;;5094067;28;20060;-69
2023/10/15 06:10:12;;;;;;;10.85;1.73;;;;;;;;;;5091405;28;20107;-70
2023/10/15 06:12:39;;;;;;;9.65;1.52;;;;;;;;;;5099497;28;20060;-70
2023/10/15 06:15:06;;;;;;;11.77;1.63;;;;;;;;;;5097177;28;20106;-70
2023/10/15 06:17:32;;;;;;;7.28;1.50;;;;;;;;;;5091364;28;20103;-70
2023/10/15 06:19:59;;;;;;;13.30;2.10;;;;;;;;;;5099394;28;20020;-70
2023/10/15 06:22:25;;;;;;;8.35;1.60;;;;;;;;;;5093561;28;20032;-69
2023/10/15 06:24:52;;;;;;;9.45;1.65;;;;;;;;;;5089602;28;20028;-70
2023/10/15 06:27:18;;;;;;;8.48;2.03;;;;;;;;;;5099198;28;20023;-70
2023/10/15 06:29:44;;;;;;;12.05;1.55;;;;;;;;;;5102151;28;20012;-69
2023/10/15 06:32:10;;;;;;;7.90;1.55;;;;;;;;;;5111203;28;20035;-70
2023/10/15 06:34:39;;;;;;;11.23;1.85;;;;;;;;;;5114312;28;20399;-70
2023/10/15 06:37:08;;;;;;;10.05;1.38;;;;;;;;;;5114321;28;20027;-69
2023/10/15 06:39:34;;;;;;;20.48;1.98;;;;;;;;;;5114059;28;20081;-71
2023/10/15 06:42:00;;;;;;;8.68;1.52;;;;;;;;;;5114081;28;20038;-69
2023/10/15 06:44:26;;;;;;;8.00;1.35;;;;;;;;;;5114429;28;20042;-67
2023/10/15 06:46:52;;;;;;;8.20;1.40;;;;;;;;;;5114109;28;20023;-67
2023/10/15 06:49:18;;;;;;;9.38;1.45;;;;;;;;;;5113889;28;20153;-68
2023/10/15 06:51:45;;;;;;;5.00;1.33;;;;;;;;;;5113932;28;20095;-71
2023/10/15 06:54:11;;;;;;;4.93;1.20;;;;;;;;;;5113485;28;20023;-68
2023/10/15 06:56:38;;;;;;;5.88;1.40;;;;;;;;;;5112713;28;20019;-68
2023/10/15 06:59:04;;;;;;;8.60;1.27;;;;;;;;;;5111983;28;20018;-69
2023/10/15 07:01:30;;;;;;;10.10;1.70;;;;;;;;;;5112378;28;20028;-69
2023/10/15 07:03:56;;;;;;;8.00;1.45;;;;;;;;;;5112885;28;20076;-70
2023/10/15 07:06:22;;;;;;;6.28;1.23;;;;;;;;;;5109338;28;20534;-72
2023/10/15 07:08:50;;;;;;;8.88;2.10;;;;;;;;;;5092423;28;20024;-73
2023/10/15 07:11:16;;;;;;;9.68;1.92;;;;;;;;;;5109848;28;20035;-71
2023/10/15 07:13:42;;;;;;;7.32;1.33;;;;;;;;;;5093578;28;20032;-70
2023/10/15 07:16:08;;;;;;;4.95;1.63;;;;;;;;;;5092385;28;20028;-71
2023/10/15 07:18:34;;;;;;;8.70;1.52;;;;;;;;;;5091481;28;20020;-70
2023/10/15 07:21:00;;;;;;;5.90;1.23;;;;;;;;;;5091401;28;20024;-70
2023/10/15 07:23:26;;;;;;;8.05;1.48;;;;;;;;;;5091765;28;20042;-71
2023/10/15 07:25:52;;;;;;;6.93;1.48;;;;;;;;;;5091677;28;20119;-70
2023/10/15 07:28:18;;;;;;;11.32;2.15;;;;;;;;;;5091701;28;20364;-69
2023/10/15 07:30:44;;;;;;;5.43;1.77;;;;;;;;;;5091687;28;20035;-70
2023/10/15 07:33:10;;;;;;;11.60;2.00;;;;;;;;;;5091332;28;20028;-70
2023/10/15 07:35:36;;;;;;;8.80;1.90;;;;;;;;;;5091800;28;20027;-70
2023/10/15 07:38:02;;;;;;;9.05;1.58;;;;;;;;;;5092036;28;20035;-72
2023/10/15 07:40:32;;;;;;;8.70;1.42;;;;;;;;;;5091308;28;20047;-70
2023/10/15 07:42:59;;;;;;;6.95;1.60;;;;;;;;;;5091391;28;20032;-70
2023/10/15 07:45:29;;;;;;;5.22;1.50;;;;;;;;;;5091655;28;20428;-71
2023/10/15 07:48:01;;;;;;;5.05;1.40;;;;;;;;;;5091266;28;20036;-70
2023/10/15 07:50:28;;;;;;;6.07;1.33;;;;;;;;;;5091337;28;20031;-70
2023/10/15 07:52:54;;;;;;;9.20;1.83;;;;;;;;;;5091181;28;20434;-71
2023/10/15 07:55:24;;;;;;;11.13;2.28;;;;;;;;;;5091326;28;20129;-70
2023/10/15 07:57:50;;;;;;;15.02;1.60;;;;;;;;;;5092136;28;20073;-69
2023/10/15 08:00:22;;;;;;;10.02;1.25;;;;;;;;;;5091841;28;20062;-71
2023/10/15 08:02:52;;;;;;;9.48;1.75;;;;;;;;;;5091656;28;20562;-70
2023/10/15 08:05:18;;;;;;;7.85;1.60;;;;;;;;;;5092467;28;20024;-71
2023/10/15 08:07:44;;;;;;;5.85;1.40;;;;;;;;;;5092212;28;20024;-71
2023/10/15 08:10:11;;;;;;;7.25;1.73;;;;;;;;;;5091206;28;20020;-70
2023/10/15 08:12:37;;;;;;;10.57;2.92;;;;;;;;;;5090835;28;20111;-70
2023/10/15 08:15:03;;;;;;;7.10;1.88;;;;;;;;;;5090726;28;20040;-70
2023/10/15 08:17:31;;;;;;;5.45;1.45;;;;;;;;;;5089793;28;20259;-71
2023/10/15 08:19:57;;;;;;;4.97;1.13;;;;;;;;;;5090717;28;20027;-71
2023/10/15 08:22:25;;;;;;;8.73;2.30;;;;;;;;;;5090794;28;20464;-71
2023/10/15 08:24:51;;;;;;;5.18;1.20;;;;;;;;;;5090701;28;20690;-70
2023/10/15 08:27:17;;;;;;;5.40;1.30;;;;;;;;;;5091323;28;20093;-72
2023/10/15 08:29:44;;;;;;;4.18;1.00;;;;;;;;;;5092160;28;20503;-71
2023/10/15 08:32:20;;;;;;;3.78;1.00;;;;;;;;;;5091077;28;20038;-72
2023/10/15 08:34:46;;;;;;;10.05;2.33;;;;;;;;;;5091010;28;20035;-71
2023/10/15 08:37:13;;;;;;;5.20;1.13;;;;;;;;;;5090695;28;20024;-70
2023/10/15 08:39:39;;;;;;;4.70;1.27;;;;;;;;;;5090491;28;20036;-70
2023/10/15 08:42:13;;;;;;;4.40;1.35;;;;;;;;;;5090449;28;20020;-74
2023/10/15 08:44:42;;;;;;;5.93;1.75;;;;;;;;;;5090552;28;20032;-70
2023/10/15 08:47:13;;;;;;;3.30;1.25;;;;;;;;;;5090625;28;20107;-71
2023/10/15 08:49:44;;;;;;;3.78;1.25;;;;;;;;;;5091515;28;20394;-77
2023/10/15 08:52:10;;;;;;;4.32;1.10;;;;;;;;;;5090490;28;20021;-72
2023/10/15 08:54:38;;;;;;;7.43;1.45;;;;;;;;;;5090379;28;20056;-72
2023/10/15 08:57:06;;;;;;;9.50;1.67;;;;;;;;;;5090466;28;20039;-72
2023/10/15 08:59:32;;;;;;;2.88;1.27;;;;;;;;;;5090486;28;20075;-72
2023/10/15 09:01:59;;;;;;;5.97;1.38;;;;;;;;;;5091165;28;20020;-74
2023/10/15 09:04:27;;;;;;;5.35;1.35;;;;;;;;;;5091095;28;20629;-72
2023/10/15 09:06:53;;;;;;;6.00;1.73;;;;;;;;;;5090613;28;20020;-71
2023/10/15 09:09:19;;;;;;;2.58;1.33;;;;;;;;;;5090356;28;20024;-74
2023/10/15 09:11:45;;;;;;;4.63;1.20;;;;;;;;;;5090192;28;20046;-74
2023/10/15 09:14:13;;;;;;;4.47;1.30;;;;;;;;;;5090363;28;20035;-71
2023/10/15 09:16:46;;;;;;;7.20;1.40;;;;;;;;;;5090478;28;20479;-71
2023/10/15 09:19:12;;;;;;;6.63;1.60;;;;;;;;;;5090235;28;20016;-72
2023/10/15 09:21:38;;;;;;;15.13;2.63;;;;;;;;;;5091673;28;20137;-71
2023/10/15 09:24:04;;;;;;;6.63;1.92;;;;;;;;;;5096587;28;20050;-73
2023/10/15 09:26:31;;;;;;;7.70;1.77;;;;;;;;;;5076757;28;20035;-70
2023/10/15 09:28:57;;;;;;;5.20;1.90;;;;;;;;;;5093916;28;20426;-70
2023/10/15 09:31:25;;;;;;;4.13;1.45;;;;;;;;;;5093632;28;20488;-71
2023/10/15 09:33:51;;;;;;;6.68;1.52;;;;;;;;;;5093998;28;20449;-70
2023/10/15 09:36:17;;;;;;;5.47;1.67;;;;;;;;;;5094348;28;20054;-69
2023/10/15 09:38:43;;;;;;;5.55;1.42;;;;;;;;;;5094131;28;20088;-70
2023/10/15 09:41:10;;;;;;;8.48;2.05;;;;;;;;;;5094601;28;20067;-70
2023/10/15 09:43:36;;;;;;;8.75;1.88;;;;;;;;;;5098345;28;20024;-70
2023/10/15 09:46:03;;;;;;;9.82;1.90;;;;;;;;;;5076930;28;20032;-70
2023/10/15 09:48:33;;;;;;;8.02;1.77;;;;;;;;;;5094782;28;20453;-69
2023/10/15 09:51:00;;;;;;;12.15;2.60;;;;;;;;;;5094719;28;20024;-70
2023/10/15 09:53:29;;;;;;;6.07;1.65;;;;;;;;;;5094607;28;20084;-70
2023/10/15 09:55:57;;;;;;;7.88;1.40;;;;;;;;;;5094599;28;20380;-70
2023/10/15 09:58:24;;;;;;;6.72;1.50;;;;;;;;;;5094597;28;20020;-69
2023/10/15 10:03:47;;;;;;;8.65;2.92;;;;;;;;;;5095171;28;20044;-71
2023/10/15 10:06:32;;;;;;;7.95;1.65;;;;;;;;;;5095034;28;20065;-71
2023/10/15 10:09:16;;;;;;;5.80;1.63;;;;;;;;;;5094358;28;20039;-69
2023/10/15 10:11:54;;;;;;;7.15;2.00;;;;;;;;;;5094314;28;20024;-70
2023/10/15 10:14:23;;;;;;;8.07;1.65;;;;;;;;;;5093468;28;20066;-72
2023/10/15 10:16:49;;;;;;;10.15;1.55;;;;;;;;;;5093111;28;20024;-69
2023/10/15 10:19:17;;;;;;;9.60;1.90;;;;;;;;;;5093277;28;20399;-71
2023/10/15 10:21:47;;;;;;;6.07;1.58;;;;;;;;;;5076142;28;20379;-72
2023/10/15 10:24:16;;;;;;;5.80;1.45;;;;;;;;;;5093789;28;20403;-70
2023/10/15 10:26:42;;;;;;;7.82;1.30;;;;;;;;;;5093863;28;20035;-71
2023/10/15 10:29:11;;;;;;;4.38;1.30;;;;;;;;;;5092744;28;20095;-70
2023/10/15 10:31:39;;;;;;;7.43;1.58;;;;;;;;;;5092324;28;20107;-70
2023/10/15 10:34:06;;;;;;;7.55;1.48;;;;;;;;;;5091545;28;20024;-70
2023/10/15 10:36:37;;;;;;;11.68;1.73;;;;;;;;;;5092601;28;20024;-70
2023/10/15 10:39:13;;;;;;;6.15;1.52;;;;;;;;;;5090068;28;20024;-70
2023/10/15 10:41:39;;;;;;;4.35;1.20;;;;;;;;;;5080066;28;20078;-71
2023/10/15 10:44:09;;;;;;;9.13;1.80;;;;;;;;;;5062083;28;20494;-71
2023/10/15 10:46:44;;;;;;;4.38;1.20;;;;;;;;;;5078797;28;20487;-71
2023/10/15 10:49:16;;;;;;;6.88;1.80;;;;;;;;;;5083821;28;20060;-71
2023/10/15 10:51:43;;;;;;;7.80;1.63;;;;;;;;;;5079333;28;20012;-71
2023/10/15 10:54:09;;;;;;;9.63;1.88;;;;;;;;;;5081327;28;20082;-71
2023/10/15 10:56:41;;;;;;;8.48;1.60;;;;;;;;;;5082771;28;20013;-72
2023/10/15 10:59:08;;;;;;;8.30;1.60;;;;;;;;;;5081384;28;20418;-72
2023/10/15 11:01:38;;;;;;;9.48;2.08;;;;;;;;;;5080661;28;20020;-71
2023/10/15 11:04:07;;;;;;;4.40;1.50;;;;;;;;;;5076166;28;20025;-70
2023/10/15 11:06:33;;;;;;;8.93;1.95;;;;;;;;;;5083647;28;20533;-71
2023/10/15 11:09:02;;;;;;;10.52;1.92;;;;;;;;;;5078643;28;20656;-71
2023/10/15 11:11:29;;;;;;;11.82;1.98;;;;;;;;;;5078798;28;20024;-71
2023/10/15 11:13:55;;;;;;;5.53;1.40;;;;;;;;;;5084661;28;20028;-71
2023/10/15 11:16:22;;;;;;;13.07;2.95;;;;;;;;;;5081818;28;20098;-69
2023/10/15 11:18:48;;;;;;;5.28;1.50;;;;;;;;;;5084314;28;20073;-71
2023/10/15 11:21:17;;;;;;;9.43;1.98;;;;;;;;;;5082122;28;20498;-71
2023/10/15 11:23:43;;;;;;;6.47;1.70;;;;;;;;;;5079883;28;20035;-70
2023/10/15 11:26:09;;;;;;;7.00;1.63;;;;;;;;;;5083490;28;20455;-70
2023/10/15 11:28:35;;;;;;;7.20;1.90;;;;;;;;;;5079722;28;20101;-71
2023/10/15 11:31:02;;;;;;;5.15;1.65;;;;;;;;;;5081457;28;20028;-71
2023/10/15 11:33:28;;;;;;;9.02;1.77;;;;;;;;;;5074332;28;20028;-71
2023/10/15 11:35:55;;;;;;;11.15;1.63;;;;;;;;;;5053512;28;20472;-70
2023/10/15 11:38:21;;;;;;;5.18;1.48;;;;;;;;;;5071775;28;20100;-71
2023/10/15 11:40:47;;;;;;;7.90;1.83;;;;;;;;;;5071197;28;20051;-70
2023/10/15 11:43:17;;;;;;;9.02;1.67;;;;;;;;;;5071209;28;20021;-70
2023/10/15 11:45:43;;;;;;;8.63;1.58;;;;;;;;;;5071130;28;20029;-71
2023/10/15 11:48:13;;;;;;;5.07;1.50;;;;;;;;;;5071243;28;20056;-70
2023/10/15 11:50:44;;;;;;;7.85;1.92;;;;;;;;;;5071143;28;20020;-72
2023/10/15 11:53:16;;;;;;;5.20;1.40;;;;;;;;;;5087535;28;20460;-72
2023/10/15 11:55:47;;;;;;;8.88;1.98;;;;;;;;;;5092746;28;20113;-70
2023/10/15 11:58:16;;;;;;;5.68;1.70;;;;;;;;;;5091647;28;20081;-70
2023/10/15 12:00:42;;;;;;;5.68;1.70;;;;;;;;;;5090280;28;20450;-72
2023/10/15 12:03:09;;;;;;;7.13;1.63;;;;;;;;;;5090840;28;20118;-73
2023/10/15 12:05:37;;;;;;;9.48;2.00;;;;;;;;;;5091432;28;20024;-70
2023/10/15 12:08:03;;;;;;;7.90;1.55;;;;;;;;;;5091264;28;20028;-71
2023/10/15 12:10:30;;;;;;;6.05;1.42;;;;;;;;;;5090957;28;20450;-70
2023/10/15 12:12:56;;;;;;;9.40;1.40;;;;;;;;;;5091756;28;20174;-70
2023/10/15 12:15:22;;;;;;;6.18;1.60;;;;;;;;;;5092258;28;20020;-72
2023/10/15 12:17:48;;;;;;;4.85;1.48;;;;;;;;;;5092248;28;20020;-70
2023/10/15 12:20:17;;;;;;;11.00;1.98;;;;;;;;;;5093213;28;20026;-72
2023/10/15 12:22:43;;;;;;;11.52;1.90;;;;;;;;;;5091988;28;20352;-71
2023/10/15 12:25:09;;;;;;;10.32;1.98;;;;;;;;;;5091730;28;20077;-73
2023/10/15 12:27:36;;;;;;;5.28;1.83;;;;;;;;;;5073461;28;20059;-71
2023/10/15 12:30:04;;;;;;;11.57;2.20;;;;;;;;;;5090877;28;20394;-72
2023/10/15 12:32:31;;;;;;;8.27;1.70;;;;;;;;;;5091465;28;20038;-71
2023/10/15 12:34:57;;;;;;;7.45;1.63;;;;;;;;;;5091709;28;20023;-71
2023/10/15 12:37:30;;;;;;;8.93;1.92;;;;;;;;;;5073255;28;20047;-71
2023/10/15 12:39:57;;;;;;;7.70;1.63;;;;;;;;;;5091407;28;20483;-71
2023/10/15 12:42:23;;;;;;;7.07;1.60;;;;;;;;;;5091803;28;20138;-71
2023/10/15 12:44:50;;;;;;;9.68;1.58;;;;;;;;;;5093243;28;20032;-71
2023/10/15 12:47:17;;;;;;;8.45;1.98;;;;;;;;;;5091999;28;20036;-70
2023/10/15 12:49:43;;;;;;;8.93;2.13;;;;;;;;;;5091372;28;20027;-71
2023/10/15 12:52:09;;;;;;;7.25;1.48;;;;;;;;;;5091900;28;20035;-72
2023/10/15 12:54:35;;;;;;;8.85;1.80;;;;;;;;;;5092136;28;20024;-73
2023/10/15 12:57:04;;;;;;;4.47;1.60;;;;;;;;;;5094138;28;20032;-72
2023/10/15 12:59:30;;;;;;;9.82;1.80;;;;;;;;;;5096123;28;20016;-71
2023/10/15 13:01:56;;;;;;;8.85;1.77;;;;;;;;;;5094593;28;20020;-72
2023/10/15 13:04:22;;;;;;;10.38;1.52;;;;;;;;;;5095521;28;20055;-71
2023/10/15 13:06:48;;;;;;;9.85;2.10;;;;;;;;;;5095517;28;20028;-71
2023/10/15 13:09:25;;;;;;;8.73;1.88;;;;;;;;;;5095268;28;20028;-72
2023/10/15 13:11:51;;;;;;;9.48;1.95;;;;;;;;;;5095443;28;20058;-70
2023/10/15 13:14:18;;;;;;;8.90;2.20;;;;;;;;;;5095292;28;20284;-72
2023/10/15 13:16:44;;;;;;;18.48;2.55;;;;;;;;;;5095418;28;20479;-72
2023/10/15 13:19:10;;;;;;;10.70;2.35;;;;;;;;;;5095103;28;20043;-72
2023/10/15 13:21:36;;;;;;;17.00;2.05;;;;;;;;;;5095165;28;20024;-74
2023/10/15 13:24:02;;;;;;;13.15;2.83;;;;;;;;;;5095117;28;20024;-72
2023/10/15 13:26:28;;;;;;;22.75;2.55;;;;;;;;;;5095114;28;20103;-72
2023/10/15 13:28:54;;;;;;;11.23;2.45;;;;;;;;;;5094879;28;20475;-73
2023/10/15 13:31:20;;;;;;;12.75;2.28;;;;;;;;;;5094958;28;20026;-73
2023/10/15 13:33:46;;;;;;;14.23;3.00;;;;;;;;;;5095299;28;20098;-72
2023/10/15 13:36:13;;;;;;;8.60;2.40;;;;;;;;;;5096123;28;20020;-73
2023/10/15 13:38:41;;;;;;;13.68;2.25;;;;;;;;;;5094562;28;20073;-75
2023/10/15 13:41:08;;;;;;;6.22;2.08;;;;;;;;;;5094724;28;20106;-73
2023/10/15 13:43:35;;;;;;;13.85;2.20;;;;;;;;;;5094816;28;20020;-74
2023/10/15 13:46:05;;;;;;;8.43;2.00;;;;;;;;;;5094433;28;20129;-71
2023/10/15 13:48:31;;;;;;;7.25;2.10;;;;;;;;;;5094282;28;20024;-73
2023/10/15 13:50:57;;;;;;;5.82;1.90;;;;;;;;;;5094334;28;20445;-73
2023/10/15 13:53:24;;;;;;;10.32;2.50;;;;;;;;;;5094258;28;20030;-74
2023/10/15 13:55:50;;;;;;;9.25;2.47;;;;;;;;;;5094682;28;20088;-73
2023/10/15 13:58:17;;;;;;;9.00;2.47;;;;;;;;;;5094978;28;20028;-74
2023/10/15 14:00:45;;;;;;;12.00;2.70;;;;;;;;;;5094232;28;20016;-74
2023/10/15 14:03:11;;;;;;;7.30;2.80;;;;;;;;;;5094740;28;20024;-73
2023/10/15 14:05:38;;;;;;;7.68;1.65;;;;;;;;;;5095403;28;20028;-73
2023/10/15 14:08:04;;;;;;;7.40;2.00;;;;;;;;;;5093675;28;20040;-73
2023/10/15 14:10:30;;;;;;;9.07;2.20;;;;;;;;;;5094098;28;20035;-74
2023/10/15 14:12:56;;;;;;;11.23;2.30;;;;;;;;;;5095641;28;20437;-75
2023/10/15 14:15:23;;;;;;;8.93;1.92;;;;;;;;;;5094124;28;20020;-71
2023/10/15 14:17:50;;;;;;;8.88;1.85;;;;;;;;;;5094582;28;20073;-72
2023/10/15 14:20:16;;;;;;;7.60;1.75;;;;;;;;;;5093893;28;20031;-72
2023/10/15 14:22:43;;;;;;;12.32;2.35;;;;;;;;;;5094117;28;20410;-73
2023/10/15 14:25:09;;;;;;;12.52;2.55;;;;;;;;;;5094289;28;20382;-72
2023/10/15 14:27:35;;;;;;;9.38;2.45;;;;;;;;;;5094073;28;20024;-73
2023/10/15 14:30:01;;;;;;;10.98;2.80;;;;;;;;;;5094992;28;20020;-73
2023/10/15 14:32:27;;;;;;;15.70;3.20;;;;;;;;;;5099137;28;20130;-72
2023/10/15 14:34:53;;;;;;;14.02;3.05;;;;;;;;;;5098849;28;20031;-74
2023/10/15 14:37:19;;;;;;;19.98;3.63;;;;;;;;;;5094420;28;20028;-72
2023/10/15 14:39:45;;;;;;;13.55;3.40;;;;;;;;;;5093610;28;20020;-71
2023/10/15 14:42:11;;;;;;;11.48;3.08;;;;;;;;;;5093676;28;20024;-71
2023/10/15 14:44:37;;;;;;;14.43;3.05;;;;;;;;;;5093734;28;20028;-71
2023/10/15 14:47:03;;;;;;;14.85;3.08;;;;;;;;;;5095295;28;20047;-71
2023/10/15 14:49:29;;;;;;;11.30;3.30;;;;;;;;;;5093727;28;20415;-71
2023/10/15 14:51:55;;;;;;;11.30;3.05;;;;;;;;;;5093603;28;20086;-71
2023/10/15 14:54:21;;;;;;;12.60;2.75;;;;;;;;;;5093509;28;20045;-71